sensor_id;sensor_type;location;lat;lon;timestamp;temperature;humidity
32706;DHT22;19094;50.972;3.538;2023-09-07T00:01:29;26.20;59.20
32706;DHT22;19094;50.972;3.538;2023-09-07T00:03:55;26.20;59.20
32706;DHT22;19094;50.972;3.538;2023-09-07T00:06:20;26.20;59.20
32706;DHT22;19094;50.972;3.538;2023-09-07T00:08:46;26.20;59.20
32706;DHT22;19094;50.972;3.538;2023-09-07T00:11:12;26.20;59.20
32706;DHT22;19094;50.972;3.538;2023-09-07T00:13:37;26.20;59.20
32706;DHT22;19094;50.972;3.538;2023-09-07T00:16:04;26.10;59.20
32706;DHT22;19094;50.972;3.538;2023-09-07T00:18:30;26.10;59.20
32706;DHT22;19094;50.972;3.538;2023-09-07T00:20:56;26.10;59.20
32706;DHT22;19094;50.972;3.538;2023-09-07T00:23:22;26.20;59.20
32706;DHT22;19094;50.972;3.538;2023-09-07T00:25:48;26.10;59.20
32706;DHT22;19094;50.972;3.538;2023-09-07T00:28:14;26.10;59.20
32706;DHT22;19094;50.972;3.538;2023-09-07T00:30:39;26.10;59.20
32706;DHT22;19094;50.972;3.538;2023-09-07T00:33:07;26.10;59.20
32706;DHT22;19094;50.972;3.538;2023-09-07T00:35:33;26.10;59.20
32706;DHT22;19094;50.972;3.538;2023-09-07T00:38:00;26.00;59.10
32706;DHT22;19094;50.972;3.538;2023-09-07T00:40:25;26.10;59.20
32706;DHT22;19094;50.972;3.538;2023-09-07T00:42:52;26.00;59.10
32706;DHT22;19094;50.972;3.538;2023-09-07T00:45:18;26.00;59.20
32706;DHT22;19094;50.972;3.538;2023-09-07T00:47:44;26.00;59.30
32706;DHT22;19094;50.972;3.538;2023-09-07T00:50:11;26.00;59.30
32706;DHT22;19094;50.972;3.538;2023-09-07T00:52:42;26.00;59.30
32706;DHT22;19094;50.972;3.538;2023-09-07T00:55:09;26.00;59.30
32706;DHT22;19094;50.972;3.538;2023-09-07T00:57:35;26.00;59.30
32706;DHT22;19094;50.972;3.538;2023-09-07T01:00:03;25.90;59.20
32706;DHT22;19094;50.972;3.538;2023-09-07T01:02:31;25.90;59.20
32706;DHT22;19094;50.972;3.538;2023-09-07T01:04:57;25.90;59.30
32706;DHT22;19094;50.972;3.538;2023-09-07T01:07:45;25.90;59.30
32706;DHT22;19094;50.972;3.538;2023-09-07T01:10:12;25.90;59.40
32706;DHT22;19094;50.972;3.538;2023-09-07T01:12:40;25.90;59.30
32706;DHT22;19094;50.972;3.538;2023-09-07T01:15:06;25.90;59.30
32706;DHT22;19094;50.972;3.538;2023-09-07T01:17:33;25.90;59.30
32706;DHT22;19094;50.972;3.538;2023-09-07T01:20:04;25.90;59.30
32706;DHT22;19094;50.972;3.538;2023-09-07T01:22:36;25.80;59.30
32706;DHT22;19094;50.972;3.538;2023-09-07T01:25:02;25.80;59.30
32706;DHT22;19094;50.972;3.538;2023-09-07T01:27:28;25.80;59.30
32706;DHT22;19094;50.972;3.538;2023-09-07T01:29:54;25.80;59.30
32706;DHT22;19094;50.972;3.538;2023-09-07T01:32:21;25.80;59.40
32706;DHT22;19094;50.972;3.538;2023-09-07T01:34:46;25.80;59.40
32706;DHT22;19094;50.972;3.538;2023-09-07T01:37:12;25.80;59.40
32706;DHT22;19094;50.972;3.538;2023-09-07T01:39:37;25.80;59.30
32706;DHT22;19094;50.972;3.538;2023-09-07T01:42:03;25.80;59.40
32706;DHT22;19094;50.972;3.538;2023-09-07T01:44:29;25.80;59.30
32706;DHT22;19094;50.972;3.538;2023-09-07T01:46:55;25.80;59.40
32706;DHT22;19094;50.972;3.538;2023-09-07T01:49:21;25.70;59.40
32706;DHT22;19094;50.972;3.538;2023-09-07T01:51:46;25.70;59.40
32706;DHT22;19094;50.972;3.538;2023-09-07T01:54:12;25.70;59.40
32706;DHT22;19094;50.972;3.538;2023-09-07T01:56:39;25.70;59.40
32706;DHT22;19094;50.972;3.538;2023-09-07T01:59:06;25.70;59.50
32706;DHT22;19094;50.972;3.538;2023-09-07T02:01:32;25.70;59.40
32706;DHT22;19094;50.972;3.538;2023-09-07T02:04:02;25.70;59.40
32706;DHT22;19094;50.972;3.538;2023-09-07T02:06:28;25.70;59.50
32706;DHT22;19094;50.972;3.538;2023-09-07T02:08:54;25.60;60.10
32706;DHT22;19094;50.972;3.538;2023-09-07T02:11:19;25.60;59.40
32706;DHT22;19094;50.972;3.538;2023-09-07T02:13:47;25.60;59.50
32706;DHT22;19094;50.972;3.538;2023-09-07T02:16:13;25.60;59.50
32706;DHT22;19094;50.972;3.538;2023-09-07T02:18:39;25.60;59.50
32706;DHT22;19094;50.972;3.538;2023-09-07T02:21:09;25.60;59.50
32706;DHT22;19094;50.972;3.538;2023-09-07T02:23:35;25.60;59.50
32706;DHT22;19094;50.972;3.538;2023-09-07T02:26:02;25.60;60.20
32706;DHT22;19094;50.972;3.538;2023-09-07T02:28:28;25.60;59.60
32706;DHT22;19094;50.972;3.538;2023-09-07T02:30:54;25.50;59.50
32706;DHT22;19094;50.972;3.538;2023-09-07T02:33:20;25.50;59.60
32706;DHT22;19094;50.972;3.538;2023-09-07T02:35:48;25.60;59.60
32706;DHT22;19094;50.972;3.538;2023-09-07T02:38:14;25.50;59.60
32706;DHT22;19094;50.972;3.538;2023-09-07T02:40:41;25.50;59.60
32706;DHT22;19094;50.972;3.538;2023-09-07T02:43:12;25.50;59.60
32706;DHT22;19094;50.972;3.538;2023-09-07T02:45:39;25.50;59.70
32706;DHT22;19094;50.972;3.538;2023-09-07T02:48:05;25.40;59.60
32706;DHT22;19094;50.972;3.538;2023-09-07T02:50:33;25.40;59.60
32706;DHT22;19094;50.972;3.538;2023-09-07T02:53:00;25.40;59.60
32706;DHT22;19094;50.972;3.538;2023-09-07T02:55:29;25.40;59.60
32706;DHT22;19094;50.972;3.538;2023-09-07T02:57:56;25.40;59.70
32706;DHT22;19094;50.972;3.538;2023-09-07T03:00:22;25.40;59.60
32706;DHT22;19094;50.972;3.538;2023-09-07T03:02:48;25.40;59.70
32706;DHT22;19094;50.972;3.538;2023-09-07T03:05:15;25.40;59.70
32706;DHT22;19094;50.972;3.538;2023-09-07T03:07:40;25.40;59.70
32706;DHT22;19094;50.972;3.538;2023-09-07T03:10:06;25.40;59.70
32706;DHT22;19094;50.972;3.538;2023-09-07T03:12:32;25.40;59.60
32706;DHT22;19094;50.972;3.538;2023-09-07T03:14:57;25.40;59.70
32706;DHT22;19094;50.972;3.538;2023-09-07T03:17:23;25.40;59.70
32706;DHT22;19094;50.972;3.538;2023-09-07T03:19:49;25.40;59.80
32706;DHT22;19094;50.972;3.538;2023-09-07T03:22:15;25.30;59.70
32706;DHT22;19094;50.972;3.538;2023-09-07T03:24:41;25.30;59.70
32706;DHT22;19094;50.972;3.538;2023-09-07T03:27:06;25.30;59.70
32706;DHT22;19094;50.972;3.538;2023-09-07T03:29:32;25.30;59.70
32706;DHT22;19094;50.972;3.538;2023-09-07T03:32:01;25.30;59.70
32706;DHT22;19094;50.972;3.538;2023-09-07T03:34:27;25.30;59.80
32706;DHT22;19094;50.972;3.538;2023-09-07T03:36:53;25.30;59.80
32706;DHT22;19094;50.972;3.538;2023-09-07T03:39:19;25.30;59.80
32706;DHT22;19094;50.972;3.538;2023-09-07T03:41:46;25.20;59.70
32706;DHT22;19094;50.972;3.538;2023-09-07T03:44:12;25.20;59.80
32706;DHT22;19094;50.972;3.538;2023-09-07T03:46:38;25.30;59.90
32706;DHT22;19094;50.972;3.538;2023-09-07T03:49:04;25.20;59.80
32706;DHT22;19094;50.972;3.538;2023-09-07T03:51:29;25.20;59.80
32706;DHT22;19094;50.972;3.538;2023-09-07T03:53:55;25.20;59.80
32706;DHT22;19094;50.972;3.538;2023-09-07T03:56:21;25.20;59.80
32706;DHT22;19094;50.972;3.538;2023-09-07T03:58:46;25.10;59.70
32706;DHT22;19094;50.972;3.538;2023-09-07T04:01:13;25.20;59.90
32706;DHT22;19094;50.972;3.538;2023-09-07T04:03:39;25.10;59.80
32706;DHT22;19094;50.972;3.538;2023-09-07T04:06:06;25.10;59.80
32706;DHT22;19094;50.972;3.538;2023-09-07T04:08:32;25.10;59.80
32706;DHT22;19094;50.972;3.538;2023-09-07T04:10:58;25.10;59.90
32706;DHT22;19094;50.972;3.538;2023-09-07T04:13:23;25.10;59.90
32706;DHT22;19094;50.972;3.538;2023-09-07T04:15:49;25.10;59.90
32706;DHT22;19094;50.972;3.538;2023-09-07T04:18:15;25.10;59.90
32706;DHT22;19094;50.972;3.538;2023-09-07T04:20:42;25.10;59.90
32706;DHT22;19094;50.972;3.538;2023-09-07T04:23:08;25.10;59.90
32706;DHT22;19094;50.972;3.538;2023-09-07T04:25:34;25.10;60.30
32706;DHT22;19094;50.972;3.538;2023-09-07T04:28:00;25.10;60.00
32706;DHT22;19094;50.972;3.538;2023-09-07T04:30:26;25.00;59.90
32706;DHT22;19094;50.972;3.538;2023-09-07T04:32:52;25.00;59.90
32706;DHT22;19094;50.972;3.538;2023-09-07T04:35:18;25.00;59.90
32706;DHT22;19094;50.972;3.538;2023-09-07T04:37:44;25.00;59.90
32706;DHT22;19094;50.972;3.538;2023-09-07T04:40:10;25.00;59.90
32706;DHT22;19094;50.972;3.538;2023-09-07T04:42:36;25.00;60.00
32706;DHT22;19094;50.972;3.538;2023-09-07T04:45:04;25.00;60.00
32706;DHT22;19094;50.972;3.538;2023-09-07T04:47:30;25.00;60.00
32706;DHT22;19094;50.972;3.538;2023-09-07T04:49:55;25.00;60.00
32706;DHT22;19094;50.972;3.538;2023-09-07T04:52:21;24.90;60.00
32706;DHT22;19094;50.972;3.538;2023-09-07T04:54:47;25.00;60.10
32706;DHT22;19094;50.972;3.538;2023-09-07T04:57:16;24.90;60.10
32706;DHT22;19094;50.972;3.538;2023-09-07T04:59:42;24.90;60.10
32706;DHT22;19094;50.972;3.538;2023-09-07T05:02:08;24.90;60.10
32706;DHT22;19094;50.972;3.538;2023-09-07T05:04:33;24.90;60.10
32706;DHT22;19094;50.972;3.538;2023-09-07T05:06:59;24.90;60.00
32706;DHT22;19094;50.972;3.538;2023-09-07T05:09:24;24.80;60.10
32706;DHT22;19094;50.972;3.538;2023-09-07T05:11:51;24.80;60.20
32706;DHT22;19094;50.972;3.538;2023-09-07T05:14:18;24.80;60.30
32706;DHT22;19094;50.972;3.538;2023-09-07T05:16:44;24.80;60.40
32706;DHT22;19094;50.972;3.538;2023-09-07T05:19:09;24.70;60.50
32706;DHT22;19094;50.972;3.538;2023-09-07T05:21:35;24.70;60.60
32706;DHT22;19094;50.972;3.538;2023-09-07T05:24:01;24.70;60.70
32706;DHT22;19094;50.972;3.538;2023-09-07T05:26:26;24.60;60.70
32706;DHT22;19094;50.972;3.538;2023-09-07T05:28:53;24.70;60.90
32706;DHT22;19094;50.972;3.538;2023-09-07T05:31:19;24.60;60.80
32706;DHT22;19094;50.972;3.538;2023-09-07T05:33:45;24.60;60.80
32706;DHT22;19094;50.972;3.538;2023-09-07T05:36:10;24.60;60.90
32706;DHT22;19094;50.972;3.538;2023-09-07T05:38:36;24.60;61.00
32706;DHT22;19094;50.972;3.538;2023-09-07T05:41:02;24.50;61.00
32706;DHT22;19094;50.972;3.538;2023-09-07T05:43:28;24.50;61.00
32706;DHT22;19094;50.972;3.538;2023-09-07T05:45:53;24.50;61.80
32706;DHT22;19094;50.972;3.538;2023-09-07T05:48:19;24.50;61.10
32706;DHT22;19094;50.972;3.538;2023-09-07T05:50:45;24.50;61.10
32706;DHT22;19094;50.972;3.538;2023-09-07T05:53:11;24.50;61.10
32706;DHT22;19094;50.972;3.538;2023-09-07T05:55:36;24.50;61.10
32706;DHT22;19094;50.972;3.538;2023-09-07T05:58:07;24.50;61.20
32706;DHT22;19094;50.972;3.538;2023-09-07T06:00:35;24.40;61.20
32706;DHT22;19094;50.972;3.538;2023-09-07T06:03:01;24.20;62.30
32706;DHT22;19094;50.972;3.538;2023-09-07T06:05:27;24.30;62.10
32706;DHT22;19094;50.972;3.538;2023-09-07T06:07:53;24.30;61.60
32706;DHT22;19094;50.972;3.538;2023-09-07T06:10:19;24.40;61.10
32706;DHT22;19094;50.972;3.538;2023-09-07T06:12:45;24.40;60.40
32706;DHT22;19094;50.972;3.538;2023-09-07T06:15:10;24.50;60.30
32706;DHT22;19094;50.972;3.538;2023-09-07T06:17:36;24.50;60.20
32706;DHT22;19094;50.972;3.538;2023-09-07T06:20:02;24.50;60.20
32706;DHT22;19094;50.972;3.538;2023-09-07T06:22:28;24.50;60.20
32706;DHT22;19094;50.972;3.538;2023-09-07T06:24:54;24.50;60.20
32706;DHT22;19094;50.972;3.538;2023-09-07T06:27:20;24.50;60.10
32706;DHT22;19094;50.972;3.538;2023-09-07T06:29:45;24.50;60.10
32706;DHT22;19094;50.972;3.538;2023-09-07T06:32:11;24.50;60.00
32706;DHT22;19094;50.972;3.538;2023-09-07T06:34:37;24.50;60.00
32706;DHT22;19094;50.972;3.538;2023-09-07T06:37:04;24.50;59.90
32706;DHT22;19094;50.972;3.538;2023-09-07T06:39:30;24.50;59.90
32706;DHT22;19094;50.972;3.538;2023-09-07T06:41:56;24.60;60.00
32706;DHT22;19094;50.972;3.538;2023-09-07T06:44:21;24.60;59.90
32706;DHT22;19094;50.972;3.538;2023-09-07T06:46:47;24.60;59.90
32706;DHT22;19094;50.972;3.538;2023-09-07T06:49:14;24.60;59.90
32706;DHT22;19094;50.972;3.538;2023-09-07T06:51:40;24.60;59.90
32706;DHT22;19094;50.972;3.538;2023-09-07T06:54:06;24.60;59.80
32706;DHT22;19094;50.972;3.538;2023-09-07T06:56:31;24.60;59.80
32706;DHT22;19094;50.972;3.538;2023-09-07T06:58:58;24.70;59.80
32706;DHT22;19094;50.972;3.538;2023-09-07T07:01:24;24.70;59.80
32706;DHT22;19094;50.972;3.538;2023-09-07T07:03:50;24.70;59.80
32706;DHT22;19094;50.972;3.538;2023-09-07T07:06:16;24.70;59.70
32706;DHT22;19094;50.972;3.538;2023-09-07T07:08:41;24.70;59.60
32706;DHT22;19094;50.972;3.538;2023-09-07T07:11:07;24.80;59.70
32706;DHT22;19094;50.972;3.538;2023-09-07T07:13:33;24.80;59.60
32706;DHT22;19094;50.972;3.538;2023-09-07T07:15:59;24.80;59.60
32706;DHT22;19094;50.972;3.538;2023-09-07T07:18:24;24.80;59.60
32706;DHT22;19094;50.972;3.538;2023-09-07T07:20:50;24.80;59.60
32706;DHT22;19094;50.972;3.538;2023-09-07T07:23:16;24.80;59.60
32706;DHT22;19094;50.972;3.538;2023-09-07T07:25:42;24.80;59.50
32706;DHT22;19094;50.972;3.538;2023-09-07T07:28:07;24.80;59.50
32706;DHT22;19094;50.972;3.538;2023-09-07T07:30:35;24.80;59.50
32706;DHT22;19094;50.972;3.538;2023-09-07T07:33:01;24.90;59.50
32706;DHT22;19094;50.972;3.538;2023-09-07T07:35:30;24.90;59.50
32706;DHT22;19094;50.972;3.538;2023-09-07T07:37:56;24.90;59.40
32706;DHT22;19094;50.972;3.538;2023-09-07T07:40:22;24.90;59.40
32706;DHT22;19094;50.972;3.538;2023-09-07T07:42:48;25.00;59.30
32706;DHT22;19094;50.972;3.538;2023-09-07T07:45:14;25.00;59.30
32706;DHT22;19094;50.972;3.538;2023-09-07T07:47:41;25.00;59.30
32706;DHT22;19094;50.972;3.538;2023-09-07T07:50:07;25.00;59.20
32706;DHT22;19094;50.972;3.538;2023-09-07T07:52:33;25.10;59.30
32706;DHT22;19094;50.972;3.538;2023-09-07T07:54:59;25.10;59.20
32706;DHT22;19094;50.972;3.538;2023-09-07T07:57:25;25.10;59.20
32706;DHT22;19094;50.972;3.538;2023-09-07T07:59:50;25.10;59.10
32706;DHT22;19094;50.972;3.538;2023-09-07T08:02:16;25.10;59.00
32706;DHT22;19094;50.972;3.538;2023-09-07T08:04:42;25.10;59.00
32706;DHT22;19094;50.972;3.538;2023-09-07T08:07:07;25.10;58.90
32706;DHT22;19094;50.972;3.538;2023-09-07T08:09:34;25.20;58.90
32706;DHT22;19094;50.972;3.538;2023-09-07T08:12:00;25.20;59.00
32706;DHT22;19094;50.972;3.538;2023-09-07T08:14:29;25.20;58.70
32706;DHT22;19094;50.972;3.538;2023-09-07T08:16:57;25.20;58.80
32706;DHT22;19094;50.972;3.538;2023-09-07T08:19:23;25.30;59.00
32706;DHT22;19094;50.972;3.538;2023-09-07T08:21:48;25.30;58.80
32706;DHT22;19094;50.972;3.538;2023-09-07T08:24:14;25.30;58.70
32706;DHT22;19094;50.972;3.538;2023-09-07T08:26:40;25.30;58.70
32706;DHT22;19094;50.972;3.538;2023-09-07T08:29:06;25.30;58.60
32706;DHT22;19094;50.972;3.538;2023-09-07T08:31:33;25.40;58.70
32706;DHT22;19094;50.972;3.538;2023-09-07T08:34:03;25.40;58.60
32706;DHT22;19094;50.972;3.538;2023-09-07T08:36:29;25.40;58.90
32706;DHT22;19094;50.972;3.538;2023-09-07T08:39:05;25.40;58.70
32706;DHT22;19094;50.972;3.538;2023-09-07T08:41:42;25.40;58.60
32706;DHT22;19094;50.972;3.538;2023-09-07T08:44:17;25.50;58.50
32706;DHT22;19094;50.972;3.538;2023-09-07T08:46:43;25.50;59.10
32706;DHT22;19094;50.972;3.538;2023-09-07T08:49:10;25.60;58.60
32706;DHT22;19094;50.972;3.538;2023-09-07T08:51:37;25.50;58.50
32706;DHT22;19094;50.972;3.538;2023-09-07T08:54:07;25.60;58.60
32706;DHT22;19094;50.972;3.538;2023-09-07T08:56:34;25.60;58.60
32706;DHT22;19094;50.972;3.538;2023-09-07T08:58:59;25.70;58.50
32706;DHT22;19094;50.972;3.538;2023-09-07T09:01:25;25.70;58.20
32706;DHT22;19094;50.972;3.538;2023-09-07T09:03:51;25.70;58.20
32706;DHT22;19094;50.972;3.538;2023-09-07T09:06:18;25.80;58.20
32706;DHT22;19094;50.972;3.538;2023-09-07T09:08:46;25.80;58.30
32706;DHT22;19094;50.972;3.538;2023-09-07T09:11:14;25.80;58.00
32706;DHT22;19094;50.972;3.538;2023-09-07T09:13:40;25.80;58.00
32706;DHT22;19094;50.972;3.538;2023-09-07T09:16:06;25.90;57.90
32706;DHT22;19094;50.972;3.538;2023-09-07T09:18:32;25.90;57.90
32706;DHT22;19094;50.972;3.538;2023-09-07T09:20:58;25.90;57.90
32706;DHT22;19094;50.972;3.538;2023-09-07T09:23:33;25.90;57.80
32706;DHT22;19094;50.972;3.538;2023-09-07T09:26:03;25.90;57.70
32706;DHT22;19094;50.972;3.538;2023-09-07T09:28:34;26.00;57.60
32706;DHT22;19094;50.972;3.538;2023-09-07T09:31:00;26.00;57.60
32706;DHT22;19094;50.972;3.538;2023-09-07T09:33:27;26.10;57.60
32706;DHT22;19094;50.972;3.538;2023-09-07T09:35:55;26.10;57.80
32706;DHT22;19094;50.972;3.538;2023-09-07T09:38:22;26.10;57.40
32706;DHT22;19094;50.972;3.538;2023-09-07T09:40:47;26.10;57.60
32706;DHT22;19094;50.972;3.538;2023-09-07T09:43:14;26.10;57.30
32706;DHT22;19094;50.972;3.538;2023-09-07T09:45:40;26.20;57.20
32706;DHT22;19094;50.972;3.538;2023-09-07T09:48:06;26.20;57.70
32706;DHT22;19094;50.972;3.538;2023-09-07T09:50:32;26.20;57.10
32706;DHT22;19094;50.972;3.538;2023-09-07T09:53:05;26.20;57.00
32706;DHT22;19094;50.972;3.538;2023-09-07T09:55:35;26.30;57.30
32706;DHT22;19094;50.972;3.538;2023-09-07T09:58:01;26.30;56.90
32706;DHT22;19094;50.972;3.538;2023-09-07T10:00:30;26.30;56.90
32706;DHT22;19094;50.972;3.538;2023-09-07T10:03:05;26.40;56.60
32706;DHT22;19094;50.972;3.538;2023-09-07T10:05:32;26.40;56.70
32706;DHT22;19094;50.972;3.538;2023-09-07T10:08:12;26.40;56.50
32706;DHT22;19094;50.972;3.538;2023-09-07T10:10:40;26.50;56.50
32706;DHT22;19094;50.972;3.538;2023-09-07T10:13:06;26.50;56.30
32706;DHT22;19094;50.972;3.538;2023-09-07T10:15:32;26.60;56.00
32706;DHT22;19094;50.972;3.538;2023-09-07T10:18:13;26.60;56.20
32706;DHT22;19094;50.972;3.538;2023-09-07T10:20:54;26.60;56.20
32706;DHT22;19094;50.972;3.538;2023-09-07T10:23:22;26.60;56.10
32706;DHT22;19094;50.972;3.538;2023-09-07T10:25:53;26.60;56.00
32706;DHT22;19094;50.972;3.538;2023-09-07T10:28:25;26.70;56.10
32706;DHT22;19094;50.972;3.538;2023-09-07T10:33:23;26.70;55.90
32706;DHT22;19094;50.972;3.538;2023-09-07T10:35:49;26.80;56.10
32706;DHT22;19094;50.972;3.538;2023-09-07T10:38:15;26.80;55.70
32706;DHT22;19094;50.972;3.538;2023-09-07T10:40:44;26.90;55.70
32706;DHT22;19094;50.972;3.538;2023-09-07T10:43:10;26.90;55.60
32706;DHT22;19094;50.972;3.538;2023-09-07T10:45:36;27.00;55.90
32706;DHT22;19094;50.972;3.538;2023-09-07T10:48:02;27.10;55.30
32706;DHT22;19094;50.972;3.538;2023-09-07T10:50:29;27.20;54.70
32706;DHT22;19094;50.972;3.538;2023-09-07T10:52:55;27.30;54.60
32706;DHT22;19094;50.972;3.538;2023-09-07T10:55:21;27.30;54.20
32706;DHT22;19094;50.972;3.538;2023-09-07T10:57:47;27.50;53.60
32706;DHT22;19094;50.972;3.538;2023-09-07T11:00:14;27.60;53.20
32706;DHT22;19094;50.972;3.538;2023-09-07T11:02:41;27.70;53.60
32706;DHT22;19094;50.972;3.538;2023-09-07T11:05:08;27.60;53.60
32706;DHT22;19094;50.972;3.538;2023-09-07T11:07:34;27.70;52.10
32706;DHT22;19094;50.972;3.538;2023-09-07T11:10:00;27.80;53.10
32706;DHT22;19094;50.972;3.538;2023-09-07T11:12:29;27.90;52.80
32706;DHT22;19094;50.972;3.538;2023-09-07T11:14:55;27.90;52.90
32706;DHT22;19094;50.972;3.538;2023-09-07T11:17:30;28.00;52.70
32706;DHT22;19094;50.972;3.538;2023-09-07T11:19:56;28.00;52.70
32706;DHT22;19094;50.972;3.538;2023-09-07T11:22:22;28.20;52.40
32706;DHT22;19094;50.972;3.538;2023-09-07T11:24:48;28.20;53.00
32706;DHT22;19094;50.972;3.538;2023-09-07T11:27:17;28.10;52.60
32706;DHT22;19094;50.972;3.538;2023-09-07T11:29:53;28.30;52.20
32706;DHT22;19094;50.972;3.538;2023-09-07T11:32:19;28.50;52.00
32706;DHT22;19094;50.972;3.538;2023-09-07T11:34:51;28.40;51.90
32706;DHT22;19094;50.972;3.538;2023-09-07T11:37:22;28.30;52.40
32706;DHT22;19094;50.972;3.538;2023-09-07T11:39:48;28.30;52.50
32706;DHT22;19094;50.972;3.538;2023-09-07T11:42:14;28.40;52.20
32706;DHT22;19094;50.972;3.538;2023-09-07T11:44:40;28.60;51.40
32706;DHT22;19094;50.972;3.538;2023-09-07T11:47:05;28.80;51.40
32706;DHT22;19094;50.972;3.538;2023-09-07T11:49:32;28.80;51.20
32706;DHT22;19094;50.972;3.538;2023-09-07T11:51:58;29.00;49.80
32706;DHT22;19094;50.972;3.538;2023-09-07T11:54:24;29.00;50.80
32706;DHT22;19094;50.972;3.538;2023-09-07T11:56:49;28.90;51.10
32706;DHT22;19094;50.972;3.538;2023-09-07T11:59:15;29.00;50.60
32706;DHT22;19094;50.972;3.538;2023-09-07T12:01:43;29.20;50.20
32706;DHT22;19094;50.972;3.538;2023-09-07T12:04:09;29.30;50.20
32706;DHT22;19094;50.972;3.538;2023-09-07T12:06:35;29.40;50.00
32706;DHT22;19094;50.972;3.538;2023-09-07T12:09:04;29.60;49.60
32706;DHT22;19094;50.972;3.538;2023-09-07T12:11:30;29.70;49.50
32706;DHT22;19094;50.972;3.538;2023-09-07T12:13:59;29.60;49.70
32706;DHT22;19094;50.972;3.538;2023-09-07T12:16:28;29.50;50.00
32706;DHT22;19094;50.972;3.538;2023-09-07T12:18:54;29.30;50.40
32706;DHT22;19094;50.972;3.538;2023-09-07T12:21:20;29.50;50.00
32706;DHT22;19094;50.972;3.538;2023-09-07T12:23:46;29.90;48.90
32706;DHT22;19094;50.972;3.538;2023-09-07T12:26:13;30.00;48.60
32706;DHT22;19094;50.972;3.538;2023-09-07T12:28:40;29.90;49.10
32706;DHT22;19094;50.972;3.538;2023-09-07T12:31:05;29.60;49.60
32706;DHT22;19094;50.972;3.538;2023-09-07T12:33:31;29.80;49.30
32706;DHT22;19094;50.972;3.538;2023-09-07T12:35:58;29.90;49.10
32706;DHT22;19094;50.972;3.538;2023-09-07T12:38:25;30.00;49.00
32706;DHT22;19094;50.972;3.538;2023-09-07T12:40:54;30.30;48.40
32706;DHT22;19094;50.972;3.538;2023-09-07T12:43:20;30.50;47.90
32706;DHT22;19094;50.972;3.538;2023-09-07T12:45:46;30.60;47.60
32706;DHT22;19094;50.972;3.538;2023-09-07T12:48:12;30.80;47.30
32706;DHT22;19094;50.972;3.538;2023-09-07T12:50:38;30.80;47.20
32706;DHT22;19094;50.972;3.538;2023-09-07T12:53:06;30.40;48.00
32706;DHT22;19094;50.972;3.538;2023-09-07T12:55:32;30.50;47.90
32706;DHT22;19094;50.972;3.538;2023-09-07T12:57:58;30.40;48.20
32706;DHT22;19094;50.972;3.538;2023-09-07T13:00:26;30.60;47.80
32706;DHT22;19094;50.972;3.538;2023-09-07T13:02:52;31.00;47.20
32706;DHT22;19094;50.972;3.538;2023-09-07T13:05:18;31.10;47.00
32706;DHT22;19094;50.972;3.538;2023-09-07T13:07:45;31.50;45.50
32706;DHT22;19094;50.972;3.538;2023-09-07T13:10:11;31.60;45.90
32706;DHT22;19094;50.972;3.538;2023-09-07T13:12:37;31.50;46.10
32706;DHT22;19094;50.972;3.538;2023-09-07T13:15:03;31.30;46.60
32706;DHT22;19094;50.972;3.538;2023-09-07T13:17:29;31.50;46.20
32706;DHT22;19094;50.972;3.538;2023-09-07T13:19:55;31.80;44.90
32706;DHT22;19094;50.972;3.538;2023-09-07T13:22:21;31.90;44.40
32706;DHT22;19094;50.972;3.538;2023-09-07T13:24:47;31.90;44.60
32706;DHT22;19094;50.972;3.538;2023-09-07T13:27:12;31.90;45.20
32706;DHT22;19094;50.972;3.538;2023-09-07T13:29:38;31.90;45.10
32706;DHT22;19094;50.972;3.538;2023-09-07T13:32:04;31.90;45.00
32706;DHT22;19094;50.972;3.538;2023-09-07T13:34:30;32.10;43.90
32706;DHT22;19094;50.972;3.538;2023-09-07T13:36:56;32.40;43.70
32706;DHT22;19094;50.972;3.538;2023-09-07T13:39:22;32.50;43.80
32706;DHT22;19094;50.972;3.538;2023-09-07T13:41:48;32.50;43.10
32706;DHT22;19094;50.972;3.538;2023-09-07T13:44:14;32.60;43.50
32706;DHT22;19094;50.972;3.538;2023-09-07T13:46:41;32.60;42.80
32706;DHT22;19094;50.972;3.538;2023-09-07T13:49:09;32.60;43.20
32706;DHT22;19094;50.972;3.538;2023-09-07T13:51:35;32.60;42.60
32706;DHT22;19094;50.972;3.538;2023-09-07T13:54:08;32.90;42.30
32706;DHT22;19094;50.972;3.538;2023-09-07T13:56:34;33.00;42.50
32706;DHT22;19094;50.972;3.538;2023-09-07T13:59:00;32.80;43.60
32706;DHT22;19094;50.972;3.538;2023-09-07T14:01:26;32.50;44.00
32706;DHT22;19094;50.972;3.538;2023-09-07T14:03:52;32.70;43.50
32706;DHT22;19094;50.972;3.538;2023-09-07T14:06:17;33.00;43.20
32706;DHT22;19094;50.972;3.538;2023-09-07T14:08:45;33.00;43.00
32706;DHT22;19094;50.972;3.538;2023-09-07T14:11:11;33.00;42.80
32706;DHT22;19094;50.972;3.538;2023-09-07T14:13:37;33.30;41.80
32706;DHT22;19094;50.972;3.538;2023-09-07T14:16:04;33.50;41.10
32706;DHT22;19094;50.972;3.538;2023-09-07T14:18:30;33.70;41.30
32706;DHT22;19094;50.972;3.538;2023-09-07T14:20:55;34.00;40.30
32706;DHT22;19094;50.972;3.538;2023-09-07T14:23:27;34.00;40.00
32706;DHT22;19094;50.972;3.538;2023-09-07T14:25:53;34.10;40.50
32706;DHT22;19094;50.972;3.538;2023-09-07T14:28:19;34.00;40.80
32706;DHT22;19094;50.972;3.538;2023-09-07T14:30:45;34.00;40.20
32706;DHT22;19094;50.972;3.538;2023-09-07T14:33:11;34.00;41.40
32706;DHT22;19094;50.972;3.538;2023-09-07T14:35:37;33.70;41.80
32706;DHT22;19094;50.972;3.538;2023-09-07T14:38:03;33.60;42.20
32706;DHT22;19094;50.972;3.538;2023-09-07T14:40:28;33.70;42.00
32706;DHT22;19094;50.972;3.538;2023-09-07T14:42:54;33.80;41.60
32706;DHT22;19094;50.972;3.538;2023-09-07T14:45:23;33.90;41.50
32706;DHT22;19094;50.972;3.538;2023-09-07T14:47:49;34.00;41.50
32706;DHT22;19094;50.972;3.538;2023-09-07T14:50:15;34.00;41.00
32706;DHT22;19094;50.972;3.538;2023-09-07T14:52:41;34.40;41.00
32706;DHT22;19094;50.972;3.538;2023-09-07T14:55:08;34.50;40.20
32706;DHT22;19094;50.972;3.538;2023-09-07T14:57:34;34.80;39.40
32706;DHT22;19094;50.972;3.538;2023-09-07T15:00:00;34.90;39.40
32706;DHT22;19094;50.972;3.538;2023-09-07T15:02:26;34.70;40.30
32706;DHT22;19094;50.972;3.538;2023-09-07T15:04:52;34.70;40.00
32706;DHT22;19094;50.972;3.538;2023-09-07T15:07:17;34.80;39.10
32706;DHT22;19094;50.972;3.538;2023-09-07T15:09:44;35.00;39.30
32706;DHT22;19094;50.972;3.538;2023-09-07T15:12:09;35.00;39.00
32706;DHT22;19094;50.972;3.538;2023-09-07T15:14:36;35.00;39.10
32706;DHT22;19094;50.972;3.538;2023-09-07T15:17:02;35.00;38.70
32706;DHT22;19094;50.972;3.538;2023-09-07T15:19:28;35.10;38.60
32706;DHT22;19094;50.972;3.538;2023-09-07T15:21:55;35.00;39.50
32706;DHT22;19094;50.972;3.538;2023-09-07T15:24:21;34.90;39.40
32706;DHT22;19094;50.972;3.538;2023-09-07T15:26:47;35.10;38.80
32706;DHT22;19094;50.972;3.538;2023-09-07T15:29:13;35.00;39.00